Huvudsida
METAR-TAF:

METAR-TAF

Flygplatser :

Fasa, Iran

latitud: 28-58N, longitud: 053-41E, höjd: 1383 m

Aktuellt väderrapport

Denna rapport gjordes för 1 timme och 7 minuter sedan, klockan 03:00 UTC
Vind 4 kt från ost/sydost
Temperatur 11°C
Fuktighet 100%
Tryck 1011 hPa
Sikt: 3000 m
Spridda moln på en höjd av 1000 ft
Få moln på en höjd av 2500 ft, Cumulonimbus.
Brutna moln på en höjd av 3500 ft
Mulet på en höjd av 9000 ft
fuktdis

METAR: OISF 200300Z 11004KT 3000 BR SCT010 FEW025CB BKN035 OVC090 11/11 Q1011 A2986

Tid: 07:37 (04:07 UTC)


TAF: saknas

Aktuella väderrapporter och prognoser från 4000 flygplatser (METAR- och TAF-rapporter).

De tillgängliga stationerna syns som gula och röda prickar på kartan.

För musen över prickarna för att se namnen på stationerna.

Klicka sedan för att få väderrapporter och prognoser.

För att ändra kartan: Klicka på de gröna knapparna med ett svart kors på för att zooma in; den gröna knappen med ett streck på för att zooma ut; eller på de gröna pilarna för angränsande kartor.


METAR-TAF: